sensor_id;sensor_type;location;lat;lon;timestamp;pressure;altitude;pressure_sealevel;temperature;humidity
33795;BME280;51430;52.242;21.118;2023-07-28T00:00:01;99501.98;;;16.73;75.42
33795;BME280;51430;52.242;21.118;2023-07-28T00:02:30;99499.52;;;16.69;75.53
33795;BME280;51430;52.242;21.118;2023-07-28T00:04:58;99495.89;;;16.61;76.08
33795;BME280;51430;52.242;21.118;2023-07-28T00:07:26;99499.29;;;16.59;76.08
33795;BME280;51430;52.242;21.118;2023-07-28T00:09:54;99500.41;;;16.47;76.74
33795;BME280;51430;52.242;21.118;2023-07-28T00:12:21;99493.56;;;16.39;77.31
33795;BME280;51430;52.242;21.118;2023-07-28T00:14:49;99498.50;;;16.42;77.19
33795;BME280;51430;52.242;21.118;2023-07-28T00:17:17;99498.48;;;16.47;77.14
33795;BME280;51430;52.242;21.118;2023-07-28T00:19:45;99498.10;;;16.48;77.26
33795;BME280;51430;52.242;21.118;2023-07-28T00:22:13;99493.30;;;16.49;77.28
33795;BME280;51430;52.242;21.118;2023-07-28T00:24:41;99493.60;;;16.48;77.21
33795;BME280;51430;52.242;21.118;2023-07-28T00:27:08;99493.50;;;16.49;77.31
33795;BME280;51430;52.242;21.118;2023-07-28T00:29:36;99491.55;;;16.54;76.92
33795;BME280;51430;52.242;21.118;2023-07-28T00:32:04;99487.72;;;16.48;77.33
33795;BME280;51430;52.242;21.118;2023-07-28T00:34:32;99486.14;;;16.45;77.47
33795;BME280;51430;52.242;21.118;2023-07-28T00:37:00;99479.44;;;16.40;77.80
33795;BME280;51430;52.242;21.118;2023-07-28T00:39:27;99481.37;;;16.38;77.80
33795;BME280;51430;52.242;21.118;2023-07-28T00:41:55;99483.52;;;16.41;77.70
33795;BME280;51430;52.242;21.118;2023-07-28T00:44:23;99483.34;;;16.36;77.79
33795;BME280;51430;52.242;21.118;2023-07-28T00:46:51;99480.48;;;16.31;78.02
33795;BME280;51430;52.242;21.118;2023-07-28T00:49:19;99478.32;;;16.33;78.05
33795;BME280;51430;52.242;21.118;2023-07-28T00:51:47;99478.04;;;16.38;77.85
33795;BME280;51430;52.242;21.118;2023-07-28T00:54:15;99475.73;;;16.41;77.70
33795;BME280;51430;52.242;21.118;2023-07-28T00:56:44;99472.58;;;16.43;77.41
33795;BME280;51430;52.242;21.118;2023-07-28T00:59:13;99470.41;;;16.37;77.48
33795;BME280;51430;52.242;21.118;2023-07-28T01:01:41;99463.28;;;16.33;77.57
33795;BME280;51430;52.242;21.118;2023-07-28T01:04:08;99464.48;;;16.32;77.77
33795;BME280;51430;52.242;21.118;2023-07-28T01:06:53;99462.55;;;16.34;77.99
33795;BME280;51430;52.242;21.118;2023-07-28T01:09:29;99462.39;;;16.43;77.59
33795;BME280;51430;52.242;21.118;2023-07-28T01:12:07;99457.86;;;16.41;77.18
33795;BME280;51430;52.242;21.118;2023-07-28T01:14:35;99453.57;;;16.35;77.52
33795;BME280;51430;52.242;21.118;2023-07-28T01:17:03;99448.61;;;16.35;77.33
33795;BME280;51430;52.242;21.118;2023-07-28T01:19:31;99448.45;;;16.31;77.42
33795;BME280;51430;52.242;21.118;2023-07-28T01:24:54;99446.17;;;16.26;77.71
33795;BME280;51430;52.242;21.118;2023-07-28T01:27:24;99442.00;;;16.30;77.73
33795;BME280;51430;52.242;21.118;2023-07-28T01:29:52;99441.18;;;16.34;77.56
33795;BME280;51430;52.242;21.118;2023-07-28T01:32:20;99439.52;;;16.37;77.27
33795;BME280;51430;52.242;21.118;2023-07-28T01:34:47;99439.51;;;16.37;77.21
33795;BME280;51430;52.242;21.118;2023-07-28T01:37:15;99431.38;;;16.40;77.11
33795;BME280;51430;52.242;21.118;2023-07-28T01:39:43;99431.94;;;16.34;77.25
33795;BME280;51430;52.242;21.118;2023-07-28T01:42:11;99425.21;;;16.34;77.50
33795;BME280;51430;52.242;21.118;2023-07-28T01:44:38;99421.98;;;16.41;77.22
33795;BME280;51430;52.242;21.118;2023-07-28T01:47:06;99416.71;;;16.47;76.99
33795;BME280;51430;52.242;21.118;2023-07-28T01:49:34;99414.68;;;16.49;76.67
33795;BME280;51430;52.242;21.118;2023-07-28T01:52:02;99415.85;;;16.53;76.31
33795;BME280;51430;52.242;21.118;2023-07-28T01:54:30;99420.64;;;16.51;76.31
33795;BME280;51430;52.242;21.118;2023-07-28T01:56:58;99419.02;;;16.44;76.64
33795;BME280;51430;52.242;21.118;2023-07-28T01:59:25;99415.94;;;16.43;76.54
33795;BME280;51430;52.242;21.118;2023-07-28T02:01:53;99410.71;;;16.36;76.64
33795;BME280;51430;52.242;21.118;2023-07-28T02:04:21;99406.30;;;16.38;76.76
33795;BME280;51430;52.242;21.118;2023-07-28T02:06:49;99411.69;;;16.34;76.77
33795;BME280;51430;52.242;21.118;2023-07-28T02:09:17;99417.27;;;16.28;77.26
33795;BME280;51430;52.242;21.118;2023-07-28T02:11:44;99420.80;;;16.22;77.72
33795;BME280;51430;52.242;21.118;2023-07-28T02:14:12;99416.31;;;16.23;77.73
33795;BME280;51430;52.242;21.118;2023-07-28T02:16:40;99416.03;;;16.19;77.75
33795;BME280;51430;52.242;21.118;2023-07-28T02:19:08;99414.42;;;16.12;78.02
33795;BME280;51430;52.242;21.118;2023-07-28T02:21:35;99412.73;;;16.13;78.20
33795;BME280;51430;52.242;21.118;2023-07-28T02:24:03;99414.33;;;16.17;78.19
33795;BME280;51430;52.242;21.118;2023-07-28T02:26:32;99416.33;;;16.20;78.17
33795;BME280;51430;52.242;21.118;2023-07-28T02:29:00;99416.64;;;16.12;78.58
33795;BME280;51430;52.242;21.118;2023-07-28T02:31:28;99410.73;;;16.12;78.73
33795;BME280;51430;52.242;21.118;2023-07-28T02:33:56;99405.50;;;16.11;78.78
33795;BME280;51430;52.242;21.118;2023-07-28T02:36:23;99404.98;;;16.07;78.88
33795;BME280;51430;52.242;21.118;2023-07-28T02:38:51;99404.08;;;16.01;79.27
33795;BME280;51430;52.242;21.118;2023-07-28T02:41:19;99395.27;;;15.95;79.83
33795;BME280;51430;52.242;21.118;2023-07-28T02:43:47;99392.08;;;15.98;79.85
33795;BME280;51430;52.242;21.118;2023-07-28T02:46:15;99393.89;;;16.01;79.79
33795;BME280;51430;52.242;21.118;2023-07-28T02:48:43;99400.45;;;16.00;79.71
33795;BME280;51430;52.242;21.118;2023-07-28T02:51:11;99400.65;;;16.00;79.90
33795;BME280;51430;52.242;21.118;2023-07-28T02:53:39;99402.65;;;16.03;80.17
33795;BME280;51430;52.242;21.118;2023-07-28T02:56:06;99404.60;;;16.02;80.81
33795;BME280;51430;52.242;21.118;2023-07-28T02:58:35;99406.42;;;16.00;81.03
33795;BME280;51430;52.242;21.118;2023-07-28T03:01:03;99407.91;;;15.98;82.32
33795;BME280;51430;52.242;21.118;2023-07-28T03:03:31;99402.98;;;15.91;85.09
33795;BME280;51430;52.242;21.118;2023-07-28T03:05:59;99404.65;;;15.93;84.45
33795;BME280;51430;52.242;21.118;2023-07-28T03:08:26;99399.16;;;15.90;85.28
33795;BME280;51430;52.242;21.118;2023-07-28T03:10:58;99395.66;;;15.88;87.60
33795;BME280;51430;52.242;21.118;2023-07-28T03:13:26;99394.34;;;15.89;85.32
33795;BME280;51430;52.242;21.118;2023-07-28T03:15:54;99385.73;;;15.91;88.08
33795;BME280;51430;52.242;21.118;2023-07-28T03:18:22;99382.73;;;15.95;88.03
33795;BME280;51430;52.242;21.118;2023-07-28T03:20:49;99383.94;;;15.99;85.69
33795;BME280;51430;52.242;21.118;2023-07-28T03:23:17;99387.63;;;16.02;85.52
33795;BME280;51430;52.242;21.118;2023-07-28T03:25:45;99389.28;;;15.98;85.08
33795;BME280;51430;52.242;21.118;2023-07-28T03:28:12;99383.02;;;15.95;84.90
33795;BME280;51430;52.242;21.118;2023-07-28T03:30:40;99381.63;;;15.99;85.06
33795;BME280;51430;52.242;21.118;2023-07-28T03:33:08;99376.85;;;16.01;84.37
33795;BME280;51430;52.242;21.118;2023-07-28T03:35:36;99370.77;;;15.97;86.05
33795;BME280;51430;52.242;21.118;2023-07-28T03:38:03;99370.40;;;16.03;85.39
33795;BME280;51430;52.242;21.118;2023-07-28T03:40:31;99370.89;;;16.05;84.60
33795;BME280;51430;52.242;21.118;2023-07-28T03:42:59;99374.02;;;16.04;84.45
33795;BME280;51430;52.242;21.118;2023-07-28T03:45:27;99375.36;;;16.01;84.68
33795;BME280;51430;52.242;21.118;2023-07-28T03:47:55;99374.97;;;16.00;85.15
33795;BME280;51430;52.242;21.118;2023-07-28T03:50:22;99375.33;;;16.09;84.30
33795;BME280;51430;52.242;21.118;2023-07-28T03:52:52;99370.69;;;16.10;83.91
33795;BME280;51430;52.242;21.118;2023-07-28T03:55:19;99367.06;;;16.09;84.00
33795;BME280;51430;52.242;21.118;2023-07-28T03:57:47;99362.52;;;16.07;84.23
33795;BME280;51430;52.242;21.118;2023-07-28T04:00:15;99361.51;;;16.10;83.97
33795;BME280;51430;52.242;21.118;2023-07-28T04:02:42;99360.75;;;16.11;84.15
33795;BME280;51430;52.242;21.118;2023-07-28T04:05:10;99363.44;;;16.13;83.89
33795;BME280;51430;52.242;21.118;2023-07-28T04:07:38;99362.17;;;16.15;83.86
33795;BME280;51430;52.242;21.118;2023-07-28T04:10:06;99364.80;;;16.17;83.81
33795;BME280;51430;52.242;21.118;2023-07-28T04:12:34;99367.41;;;16.17;83.39
33795;BME280;51430;52.242;21.118;2023-07-28T04:15:02;99362.52;;;16.20;83.56
33795;BME280;51430;52.242;21.118;2023-07-28T04:17:32;99358.70;;;16.22;83.28
33795;BME280;51430;52.242;21.118;2023-07-28T04:19:59;99357.84;;;16.24;83.20
33795;BME280;51430;52.242;21.118;2023-07-28T04:22:27;99356.49;;;16.26;83.24
33795;BME280;51430;52.242;21.118;2023-07-28T04:24:55;99353.98;;;16.26;83.17
33795;BME280;51430;52.242;21.118;2023-07-28T04:27:23;99355.93;;;16.31;83.10
33795;BME280;51430;52.242;21.118;2023-07-28T04:29:51;99354.23;;;16.32;83.03
33795;BME280;51430;52.242;21.118;2023-07-28T04:32:18;99349.54;;;16.36;82.79
33795;BME280;51430;52.242;21.118;2023-07-28T04:34:46;99348.52;;;16.43;82.69
33795;BME280;51430;52.242;21.118;2023-07-28T04:37:14;99346.65;;;16.58;82.15
33795;BME280;51430;52.242;21.118;2023-07-28T04:39:42;99344.71;;;16.65;81.59
33795;BME280;51430;52.242;21.118;2023-07-28T04:42:09;99340.98;;;16.71;81.47
33795;BME280;51430;52.242;21.118;2023-07-28T04:44:38;99339.13;;;16.78;81.19
33795;BME280;51430;52.242;21.118;2023-07-28T04:47:07;99338.96;;;16.82;80.70
33795;BME280;51430;52.242;21.118;2023-07-28T04:49:35;99340.03;;;16.91;80.33
33795;BME280;51430;52.242;21.118;2023-07-28T04:52:02;99339.40;;;16.89;80.28
33795;BME280;51430;52.242;21.118;2023-07-28T04:54:30;99337.24;;;16.86;80.28
33795;BME280;51430;52.242;21.118;2023-07-28T04:56:58;99333.55;;;16.86;80.44
33795;BME280;51430;52.242;21.118;2023-07-28T04:59:26;99329.98;;;16.89;80.51
33795;BME280;51430;52.242;21.118;2023-07-28T05:01:53;99327.02;;;16.98;79.94
33795;BME280;51430;52.242;21.118;2023-07-28T05:04:21;99331.48;;;17.05;79.76
33795;BME280;51430;52.242;21.118;2023-07-28T05:06:49;99326.23;;;17.10;79.21
33795;BME280;51430;52.242;21.118;2023-07-28T05:09:17;99323.92;;;17.20;79.01
33795;BME280;51430;52.242;21.118;2023-07-28T05:11:45;99320.23;;;17.29;78.19
33795;BME280;51430;52.242;21.118;2023-07-28T05:14:15;99317.38;;;17.31;77.84
33795;BME280;51430;52.242;21.118;2023-07-28T05:16:43;99319.27;;;17.33;77.59
33795;BME280;51430;52.242;21.118;2023-07-28T05:19:11;99314.77;;;17.32;77.58
33795;BME280;51430;52.242;21.118;2023-07-28T05:21:39;99317.08;;;17.38;77.21
33795;BME280;51430;52.242;21.118;2023-07-28T05:24:07;99319.97;;;17.45;77.19
33795;BME280;51430;52.242;21.118;2023-07-28T05:26:34;99320.65;;;17.50;76.99
33795;BME280;51430;52.242;21.118;2023-07-28T05:29:02;99322.34;;;17.49;76.82
33795;BME280;51430;52.242;21.118;2023-07-28T05:31:30;99320.48;;;17.54;76.63
33795;BME280;51430;52.242;21.118;2023-07-28T05:33:59;99317.55;;;17.57;76.49
33795;BME280;51430;52.242;21.118;2023-07-28T05:36:26;99314.79;;;17.67;76.12
33795;BME280;51430;52.242;21.118;2023-07-28T05:38:57;99307.39;;;17.71;75.92
33795;BME280;51430;52.242;21.118;2023-07-28T05:41:26;99303.86;;;17.78;75.45
33795;BME280;51430;52.242;21.118;2023-07-28T05:43:54;99302.89;;;17.92;75.18
33795;BME280;51430;52.242;21.118;2023-07-28T05:46:21;99302.85;;;17.99;74.94
33795;BME280;51430;52.242;21.118;2023-07-28T05:48:49;99301.65;;;18.01;74.40
33795;BME280;51430;52.242;21.118;2023-07-28T05:51:17;99306.36;;;18.08;74.04
33795;BME280;51430;52.242;21.118;2023-07-28T05:53:44;99303.55;;;18.08;74.24
33795;BME280;51430;52.242;21.118;2023-07-28T05:56:12;99307.40;;;18.07;74.14
33795;BME280;51430;52.242;21.118;2023-07-28T05:58:41;99310.35;;;18.04;74.68
33795;BME280;51430;52.242;21.118;2023-07-28T06:01:08;99307.67;;;18.04;74.32
33795;BME280;51430;52.242;21.118;2023-07-28T06:03:36;99312.41;;;17.95;75.13
33795;BME280;51430;52.242;21.118;2023-07-28T06:06:04;99313.55;;;17.93;74.79
33795;BME280;51430;52.242;21.118;2023-07-28T06:08:31;99310.92;;;18.04;74.67
33795;BME280;51430;52.242;21.118;2023-07-28T06:10:59;99316.22;;;18.19;74.01
33795;BME280;51430;52.242;21.118;2023-07-28T06:13:27;99315.02;;;18.26;74.09
33795;BME280;51430;52.242;21.118;2023-07-28T06:15:55;99317.20;;;18.47;73.46
33795;BME280;51430;52.242;21.118;2023-07-28T06:18:24;99317.03;;;18.57;72.99
33795;BME280;51430;52.242;21.118;2023-07-28T06:20:52;99317.64;;;18.57;72.53
33795;BME280;51430;52.242;21.118;2023-07-28T06:23:19;99314.29;;;18.47;72.70
33795;BME280;51430;52.242;21.118;2023-07-28T06:25:47;99313.66;;;18.45;72.80
33795;BME280;51430;52.242;21.118;2023-07-28T06:28:15;99308.45;;;18.54;72.56
33795;BME280;51430;52.242;21.118;2023-07-28T06:30:43;99306.72;;;18.62;72.37
33795;BME280;51430;52.242;21.118;2023-07-28T06:33:11;99313.38;;;18.70;71.84
33795;BME280;51430;52.242;21.118;2023-07-28T06:35:39;99311.05;;;18.77;71.75
33795;BME280;51430;52.242;21.118;2023-07-28T06:38:06;99312.70;;;18.78;71.71
33795;BME280;51430;52.242;21.118;2023-07-28T06:40:36;99308.98;;;18.87;70.89
33795;BME280;51430;52.242;21.118;2023-07-28T06:43:04;99310.46;;;18.88;70.97
33795;BME280;51430;52.242;21.118;2023-07-28T06:45:31;99312.45;;;18.84;70.74
33795;BME280;51430;52.242;21.118;2023-07-28T06:47:59;99315.73;;;18.87;71.08
33795;BME280;51430;52.242;21.118;2023-07-28T06:50:27;99315.49;;;18.87;71.22
33795;BME280;51430;52.242;21.118;2023-07-28T06:52:55;99314.52;;;18.92;70.91
33795;BME280;51430;52.242;21.118;2023-07-28T06:55:22;99315.75;;;19.00;70.99
33795;BME280;51430;52.242;21.118;2023-07-28T06:57:51;99314.34;;;18.96;71.23
33795;BME280;51430;52.242;21.118;2023-07-28T07:00:19;99313.23;;;19.01;71.16
33795;BME280;51430;52.242;21.118;2023-07-28T07:02:47;99308.24;;;19.01;71.08
33795;BME280;51430;52.242;21.118;2023-07-28T07:05:15;99304.46;;;19.06;71.00
33795;BME280;51430;52.242;21.118;2023-07-28T07:07:42;99299.56;;;19.13;71.27
33795;BME280;51430;52.242;21.118;2023-07-28T07:10:10;99291.83;;;19.08;71.22
33795;BME280;51430;52.242;21.118;2023-07-28T07:12:38;99296.34;;;19.12;71.02
33795;BME280;51430;52.242;21.118;2023-07-28T07:15:06;99291.63;;;19.01;71.53
33795;BME280;51430;52.242;21.118;2023-07-28T07:17:34;99298.27;;;18.92;73.46
33795;BME280;51430;52.242;21.118;2023-07-28T07:20:05;99302.95;;;18.65;75.33
33795;BME280;51430;52.242;21.118;2023-07-28T07:22:33;99302.54;;;18.40;78.29
33795;BME280;51430;52.242;21.118;2023-07-28T07:25:01;99310.50;;;18.14;79.35
33795;BME280;51430;52.242;21.118;2023-07-28T07:27:32;99304.60;;;17.75;81.98
33795;BME280;51430;52.242;21.118;2023-07-28T07:30:06;99312.52;;;17.42;84.91
33795;BME280;51430;52.242;21.118;2023-07-28T07:32:34;99315.31;;;17.06;90.37
33795;BME280;51430;52.242;21.118;2023-07-28T07:35:02;99318.72;;;16.73;93.57
33795;BME280;51430;52.242;21.118;2023-07-28T07:37:33;99319.16;;;16.55;96.31
33795;BME280;51430;52.242;21.118;2023-07-28T07:40:01;99320.88;;;16.40;97.33
33795;BME280;51430;52.242;21.118;2023-07-28T07:42:43;99316.83;;;16.39;98.36
33795;BME280;51430;52.242;21.118;2023-07-28T07:45:11;99310.86;;;16.39;99.69
33795;BME280;51430;52.242;21.118;2023-07-28T07:47:40;99307.86;;;16.40;100.00
33795;BME280;51430;52.242;21.118;2023-07-28T07:50:10;99310.38;;;16.47;100.00
33795;BME280;51430;52.242;21.118;2023-07-28T07:52:38;99309.83;;;16.50;100.00
33795;BME280;51430;52.242;21.118;2023-07-28T07:55:10;99306.89;;;16.50;100.00
33795;BME280;51430;52.242;21.118;2023-07-28T07:57:43;99313.14;;;16.43;100.00
33795;BME280;51430;52.242;21.118;2023-07-28T08:00:12;99311.72;;;16.43;100.00
33795;BME280;51430;52.242;21.118;2023-07-28T08:02:39;99310.09;;;16.49;100.00
33795;BME280;51430;52.242;21.118;2023-07-28T08:05:10;99306.73;;;16.50;100.00
33795;BME280;51430;52.242;21.118;2023-07-28T08:07:38;99300.95;;;16.40;100.00
33795;BME280;51430;52.242;21.118;2023-07-28T08:10:07;99302.44;;;16.47;100.00
33795;BME280;51430;52.242;21.118;2023-07-28T08:12:34;99303.97;;;16.45;100.00
33795;BME280;51430;52.242;21.118;2023-07-28T08:15:04;99306.67;;;16.46;100.00
33795;BME280;51430;52.242;21.118;2023-07-28T08:17:32;99315.66;;;16.47;100.00
33795;BME280;51430;52.242;21.118;2023-07-28T08:20:00;99318.56;;;16.39;100.00
33795;BME280;51430;52.242;21.118;2023-07-28T08:22:28;99314.30;;;16.38;100.00
33795;BME280;51430;52.242;21.118;2023-07-28T08:24:55;99311.53;;;16.36;100.00
33795;BME280;51430;52.242;21.118;2023-07-28T08:27:23;99309.37;;;16.38;100.00
33795;BME280;51430;52.242;21.118;2023-07-28T08:29:51;99317.83;;;16.42;100.00
33795;BME280;51430;52.242;21.118;2023-07-28T08:32:19;99317.80;;;16.43;100.00
33795;BME280;51430;52.242;21.118;2023-07-28T08:34:47;99312.53;;;16.47;100.00
33795;BME280;51430;52.242;21.118;2023-07-28T08:37:15;99309.58;;;16.63;100.00
33795;BME280;51430;52.242;21.118;2023-07-28T08:39:43;99304.92;;;16.85;100.00
33795;BME280;51430;52.242;21.118;2023-07-28T08:42:10;99300.64;;;17.04;100.00
33795;BME280;51430;52.242;21.118;2023-07-28T08:44:38;99296.28;;;17.15;100.00
33795;BME280;51430;52.242;21.118;2023-07-28T08:47:06;99294.00;;;17.20;100.00
33795;BME280;51430;52.242;21.118;2023-07-28T08:49:34;99297.05;;;17.29;100.00
33795;BME280;51430;52.242;21.118;2023-07-28T08:52:05;99295.59;;;17.32;100.00
33795;BME280;51430;52.242;21.118;2023-07-28T08:54:33;99295.84;;;17.36;100.00
33795;BME280;51430;52.242;21.118;2023-07-28T08:57:00;99297.80;;;17.43;100.00
33795;BME280;51430;52.242;21.118;2023-07-28T08:59:29;99295.09;;;17.44;100.00
33795;BME280;51430;52.242;21.118;2023-07-28T09:01:57;99296.17;;;17.37;100.00
33795;BME280;51430;52.242;21.118;2023-07-28T09:04:27;99298.42;;;17.32;100.00
33795;BME280;51430;52.242;21.118;2023-07-28T09:06:55;99290.95;;;17.28;100.00
33795;BME280;51430;52.242;21.118;2023-07-28T09:09:23;99290.79;;;17.35;100.00
33795;BME280;51430;52.242;21.118;2023-07-28T09:11:52;99288.86;;;17.46;100.00
33795;BME280;51430;52.242;21.118;2023-07-28T09:14:21;99285.81;;;17.56;100.00
33795;BME280;51430;52.242;21.118;2023-07-28T09:16:53;99281.38;;;17.62;100.00
33795;BME280;51430;52.242;21.118;2023-07-28T09:19:21;99283.73;;;17.56;100.00
33795;BME280;51430;52.242;21.118;2023-07-28T09:22:00;99287.86;;;17.51;100.00
33795;BME280;51430;52.242;21.118;2023-07-28T09:24:32;99284.92;;;17.53;100.00
33795;BME280;51430;52.242;21.118;2023-07-28T09:27:01;99281.89;;;17.61;100.00
33795;BME280;51430;52.242;21.118;2023-07-28T09:29:30;99282.33;;;17.67;100.00
33795;BME280;51430;52.242;21.118;2023-07-28T09:32:07;99278.89;;;17.76;100.00
33795;BME280;51430;52.242;21.118;2023-07-28T09:34:36;99274.55;;;17.70;100.00
33795;BME280;51430;52.242;21.118;2023-07-28T09:37:05;99274.93;;;17.67;100.00
33795;BME280;51430;52.242;21.118;2023-07-28T09:39:36;99273.33;;;17.74;100.00
33795;BME280;51430;52.242;21.118;2023-07-28T09:42:05;99272.69;;;17.86;100.00
33795;BME280;51430;52.242;21.118;2023-07-28T09:44:36;99274.27;;;18.06;100.00
33795;BME280;51430;52.242;21.118;2023-07-28T09:47:05;99275.25;;;18.16;99.83
33795;BME280;51430;52.242;21.118;2023-07-28T09:49:39;99278.10;;;18.15;99.90
33795;BME280;51430;52.242;21.118;2023-07-28T09:52:09;99269.63;;;18.11;99.43
33795;BME280;51430;52.242;21.118;2023-07-28T09:54:41;99271.64;;;18.08;99.94
33795;BME280;51430;52.242;21.118;2023-07-28T09:57:14;99269.94;;;18.12;99.99
33795;BME280;51430;52.242;21.118;2023-07-28T09:59:47;99267.65;;;18.26;99.90
33795;BME280;51430;52.242;21.118;2023-07-28T10:02:15;99268.55;;;18.22;99.98
33795;BME280;51430;52.242;21.118;2023-07-28T10:04:43;99268.30;;;18.20;99.55
33795;BME280;51430;52.242;21.118;2023-07-28T10:07:11;99260.11;;;18.16;99.34
33795;BME280;51430;52.242;21.118;2023-07-28T10:09:40;99252.98;;;18.14;100.00
33795;BME280;51430;52.242;21.118;2023-07-28T10:12:18;99251.97;;;18.26;100.00
33795;BME280;51430;52.242;21.118;2023-07-28T10:14:46;99253.09;;;18.33;99.64
33795;BME280;51430;52.242;21.118;2023-07-28T10:17:17;99254.45;;;18.35;99.84
33795;BME280;51430;52.242;21.118;2023-07-28T10:19:45;99255.11;;;18.25;99.32
33795;BME280;51430;52.242;21.118;2023-07-28T10:22:13;99257.64;;;18.22;100.00
33795;BME280;51430;52.242;21.118;2023-07-28T10:24:50;99260.98;;;18.26;100.00
33795;BME280;51430;52.242;21.118;2023-07-28T10:27:35;99259.05;;;18.20;99.77
33795;BME280;51430;52.242;21.118;2023-07-28T10:30:11;99253.79;;;18.24;99.58
33795;BME280;51430;52.242;21.118;2023-07-28T10:32:41;99249.52;;;18.34;98.75
33795;BME280;51430;52.242;21.118;2023-07-28T10:35:21;99245.26;;;18.53;97.62
33795;BME280;51430;52.242;21.118;2023-07-28T10:37:49;99249.47;;;18.68;96.88
33795;BME280;51430;52.242;21.118;2023-07-28T10:40:30;99250.23;;;18.66;96.97
33795;BME280;51430;52.242;21.118;2023-07-28T10:42:58;99245.01;;;18.71;95.75
33795;BME280;51430;52.242;21.118;2023-07-28T10:45:29;99243.85;;;18.69;96.06
33795;BME280;51430;52.242;21.118;2023-07-28T10:47:58;99246.58;;;18.69;95.67
33795;BME280;51430;52.242;21.118;2023-07-28T10:50:31;99244.27;;;18.70;95.41
33795;BME280;51430;52.242;21.118;2023-07-28T10:52:59;99239.08;;;18.68;95.48
33795;BME280;51430;52.242;21.118;2023-07-28T10:55:27;99239.97;;;18.74;95.33
33795;BME280;51430;52.242;21.118;2023-07-28T10:57:55;99235.02;;;18.84;94.61
33795;BME280;51430;52.242;21.118;2023-07-28T11:00:25;99236.30;;;18.94;94.32
33795;BME280;51430;52.242;21.118;2023-07-28T11:02:54;99234.82;;;19.15;94.85
33795;BME280;51430;52.242;21.118;2023-07-28T11:05:24;99237.21;;;19.30;93.73
33795;BME280;51430;52.242;21.118;2023-07-28T11:07:57;99236.30;;;19.58;94.11
33795;BME280;51430;52.242;21.118;2023-07-28T11:10:28;99234.84;;;19.75;92.30
33795;BME280;51430;52.242;21.118;2023-07-28T11:13:00;99236.68;;;19.76;90.66
33795;BME280;51430;52.242;21.118;2023-07-28T11:15:37;99233.02;;;19.66;90.63
33795;BME280;51430;52.242;21.118;2023-07-28T11:18:06;99231.55;;;19.63;91.11
33795;BME280;51430;52.242;21.118;2023-07-28T11:20:34;99235.00;;;19.60;91.42
33795;BME280;51430;52.242;21.118;2023-07-28T11:23:04;99238.78;;;19.56;90.31
33795;BME280;51430;52.242;21.118;2023-07-28T11:25:33;99236.05;;;19.55;90.91
33795;BME280;51430;52.242;21.118;2023-07-28T11:28:02;99233.05;;;19.48;91.38
33795;BME280;51430;52.242;21.118;2023-07-28T11:30:36;99232.77;;;19.47;90.84
33795;BME280;51430;52.242;21.118;2023-07-28T11:33:09;99227.79;;;19.48;91.49
33795;BME280;51430;52.242;21.118;2023-07-28T11:35:39;99229.55;;;19.67;92.06
33795;BME280;51430;52.242;21.118;2023-07-28T11:38:08;99232.91;;;20.00;91.29
33795;BME280;51430;52.242;21.118;2023-07-28T11:40:36;99233.31;;;20.47;89.57
33795;BME280;51430;52.242;21.118;2023-07-28T11:43:05;99230.39;;;21.09;85.47
33795;BME280;51430;52.242;21.118;2023-07-28T11:45:33;99229.50;;;21.18;84.00
33795;BME280;51430;52.242;21.118;2023-07-28T11:48:04;99217.33;;;21.28;84.04
33795;BME280;51430;52.242;21.118;2023-07-28T11:50:38;99217.21;;;21.62;82.77
33795;BME280;51430;52.242;21.118;2023-07-28T11:53:09;99206.44;;;21.76;81.83
33795;BME280;51430;52.242;21.118;2023-07-28T11:55:38;99207.29;;;21.88;82.99
33795;BME280;51430;52.242;21.118;2023-07-28T11:58:07;99211.45;;;22.11;80.22
33795;BME280;51430;52.242;21.118;2023-07-28T12:00:37;99211.85;;;22.23;79.39
33795;BME280;51430;52.242;21.118;2023-07-28T12:03:09;99213.48;;;22.41;79.63
33795;BME280;51430;52.242;21.118;2023-07-28T12:05:40;99212.85;;;22.41;76.60
33795;BME280;51430;52.242;21.118;2023-07-28T12:08:11;99209.38;;;22.56;74.44
33795;BME280;51430;52.242;21.118;2023-07-28T12:10:53;99200.55;;;22.91;73.00
33795;BME280;51430;52.242;21.118;2023-07-28T12:13:51;99204.04;;;23.69;71.22
33795;BME280;51430;52.242;21.118;2023-07-28T12:16:41;99204.41;;;24.13;67.04
33795;BME280;51430;52.242;21.118;2023-07-28T12:19:18;99207.63;;;24.21;67.81
33795;BME280;51430;52.242;21.118;2023-07-28T12:21:45;99215.80;;;24.31;66.00
33795;BME280;51430;52.242;21.118;2023-07-28T12:24:13;99215.52;;;24.61;65.46
33795;BME280;51430;52.242;21.118;2023-07-28T12:26:41;99211.33;;;24.61;64.48
33795;BME280;51430;52.242;21.118;2023-07-28T12:29:09;99213.61;;;24.97;63.58
33795;BME280;51430;52.242;21.118;2023-07-28T12:31:38;99212.25;;;25.67;60.95
33795;BME280;51430;52.242;21.118;2023-07-28T12:34:10;99211.39;;;25.76;60.57
33795;BME280;51430;52.242;21.118;2023-07-28T12:36:37;99215.79;;;25.01;58.84
33795;BME280;51430;52.242;21.118;2023-07-28T12:39:08;99217.91;;;24.39;61.25
33795;BME280;51430;52.242;21.118;2023-07-28T12:41:39;99218.75;;;24.43;61.78
33795;BME280;51430;52.242;21.118;2023-07-28T12:44:11;99219.62;;;24.68;60.84
33795;BME280;51430;52.242;21.118;2023-07-28T12:46:42;99215.48;;;24.86;59.63
33795;BME280;51430;52.242;21.118;2023-07-28T12:49:11;99213.98;;;25.14;58.80
33795;BME280;51430;52.242;21.118;2023-07-28T12:51:48;99219.84;;;25.45;57.17
33795;BME280;51430;52.242;21.118;2023-07-28T12:54:19;99222.66;;;25.45;57.26
33795;BME280;51430;52.242;21.118;2023-07-28T12:56:47;99228.70;;;25.22;58.28
33795;BME280;51430;52.242;21.118;2023-07-28T12:59:36;99237.06;;;25.05;59.02